sensor_id;sensor_type;location;lat;lon;timestamp;P1;durP1;ratioP1;P2;durP2;ratioP2
66327;SDS011;53133;52.862;6.602;2023-02-11T00:01:18;19.17;;;7.53;;
66327;SDS011;53133;52.862;6.602;2023-02-11T00:03:52;25.98;;;7.30;;
66327;SDS011;53133;52.862;6.602;2023-02-11T00:06:18;21.77;;;7.22;;
66327;SDS011;53133;52.862;6.602;2023-02-11T00:08:43;23.52;;;6.93;;
66327;SDS011;53133;52.862;6.602;2023-02-11T00:11:12;24.90;;;7.60;;
66327;SDS011;53133;52.862;6.602;2023-02-11T00:13:39;23.83;;;7.53;;
66327;SDS011;53133;52.862;6.602;2023-02-11T00:16:09;22.17;;;7.15;;
66327;SDS011;53133;52.862;6.602;2023-02-11T00:18:36;25.25;;;6.70;;
66327;SDS011;53133;52.862;6.602;2023-02-11T00:21:08;20.67;;;6.88;;
66327;SDS011;53133;52.862;6.602;2023-02-11T00:23:35;24.90;;;7.10;;
66327;SDS011;53133;52.862;6.602;2023-02-11T00:26:01;20.58;;;6.22;;
66327;SDS011;53133;52.862;6.602;2023-02-11T00:28:27;14.35;;;6.90;;
66327;SDS011;53133;52.862;6.602;2023-02-11T00:30:53;20.75;;;6.85;;
66327;SDS011;53133;52.862;6.602;2023-02-11T00:33:20;29.70;;;7.45;;
66327;SDS011;53133;52.862;6.602;2023-02-11T00:35:46;23.10;;;6.65;;
66327;SDS011;53133;52.862;6.602;2023-02-11T00:38:11;25.73;;;6.90;;
66327;SDS011;53133;52.862;6.602;2023-02-11T00:40:37;30.17;;;7.00;;
66327;SDS011;53133;52.862;6.602;2023-02-11T00:43:02;23.02;;;7.15;;
66327;SDS011;53133;52.862;6.602;2023-02-11T00:45:28;18.40;;;6.45;;
66327;SDS011;53133;52.862;6.602;2023-02-11T00:47:54;17.75;;;6.88;;
66327;SDS011;53133;52.862;6.602;2023-02-11T00:50:20;24.88;;;6.60;;
66327;SDS011;53133;52.862;6.602;2023-02-11T00:52:46;24.45;;;6.80;;
66327;SDS011;53133;52.862;6.602;2023-02-11T00:55:12;22.27;;;6.80;;
66327;SDS011;53133;52.862;6.602;2023-02-11T00:57:38;24.95;;;6.18;;
66327;SDS011;53133;52.862;6.602;2023-02-11T01:00:04;23.67;;;6.97;;
66327;SDS011;53133;52.862;6.602;2023-02-11T01:02:31;27.20;;;6.78;;
66327;SDS011;53133;52.862;6.602;2023-02-11T01:04:58;22.55;;;6.22;;
66327;SDS011;53133;52.862;6.602;2023-02-11T01:07:24;19.42;;;6.82;;
66327;SDS011;53133;52.862;6.602;2023-02-11T01:09:51;22.83;;;7.10;;
66327;SDS011;53133;52.862;6.602;2023-02-11T01:12:16;28.48;;;6.85;;
66327;SDS011;53133;52.862;6.602;2023-02-11T01:14:42;24.70;;;7.43;;
66327;SDS011;53133;52.862;6.602;2023-02-11T01:17:08;20.73;;;6.55;;
66327;SDS011;53133;52.862;6.602;2023-02-11T01:19:35;20.98;;;6.68;;
66327;SDS011;53133;52.862;6.602;2023-02-11T01:22:01;27.70;;;6.93;;
66327;SDS011;53133;52.862;6.602;2023-02-11T01:24:26;19.27;;;6.22;;
66327;SDS011;53133;52.862;6.602;2023-02-11T01:26:52;27.98;;;6.57;;
66327;SDS011;53133;52.862;6.602;2023-02-11T01:29:18;19.88;;;6.53;;
66327;SDS011;53133;52.862;6.602;2023-02-11T01:31:44;22.83;;;7.20;;
66327;SDS011;53133;52.862;6.602;2023-02-11T01:34:10;19.70;;;6.95;;
66327;SDS011;53133;52.862;6.602;2023-02-11T01:36:35;21.25;;;6.85;;
66327;SDS011;53133;52.862;6.602;2023-02-11T01:39:01;22.55;;;6.82;;
66327;SDS011;53133;52.862;6.602;2023-02-11T01:41:27;24.30;;;6.70;;
66327;SDS011;53133;52.862;6.602;2023-02-11T01:43:52;22.10;;;7.60;;
66327;SDS011;53133;52.862;6.602;2023-02-11T01:49:02;19.48;;;6.47;;
66327;SDS011;53133;52.862;6.602;2023-02-11T01:51:36;20.25;;;7.55;;
66327;SDS011;53133;52.862;6.602;2023-02-11T01:54:06;24.08;;;7.38;;
66327;SDS011;53133;52.862;6.602;2023-02-11T01:56:54;19.98;;;7.35;;
66327;SDS011;53133;52.862;6.602;2023-02-11T01:59:43;25.63;;;6.60;;
66327;SDS011;53133;52.862;6.602;2023-02-11T02:02:16;21.48;;;7.35;;
66327;SDS011;53133;52.862;6.602;2023-02-11T02:04:53;29.00;;;7.78;;
66327;SDS011;53133;52.862;6.602;2023-02-11T02:07:35;25.05;;;7.85;;
66327;SDS011;53133;52.862;6.602;2023-02-11T02:10:11;27.02;;;7.93;;
66327;SDS011;53133;52.862;6.602;2023-02-11T02:12:41;26.83;;;7.85;;
66327;SDS011;53133;52.862;6.602;2023-02-11T02:15:20;22.88;;;7.65;;
66327;SDS011;53133;52.862;6.602;2023-02-11T02:25:37;24.25;;;8.45;;
66327;SDS011;53133;52.862;6.602;2023-02-11T02:31:22;29.80;;;8.73;;
66327;SDS011;53133;52.862;6.602;2023-02-11T02:33:59;29.60;;;8.90;;
66327;SDS011;53133;52.862;6.602;2023-02-11T02:36:36;27.20;;;9.60;;
66327;SDS011;53133;52.862;6.602;2023-02-11T02:39:10;23.17;;;9.95;;
66327;SDS011;53133;52.862;6.602;2023-02-11T02:41:42;24.92;;;9.10;;
66327;SDS011;53133;52.862;6.602;2023-02-11T02:44:09;26.70;;;8.90;;
66327;SDS011;53133;52.862;6.602;2023-02-11T02:46:35;28.08;;;9.90;;
66327;SDS011;53133;52.862;6.602;2023-02-11T02:49:01;30.67;;;10.98;;
66327;SDS011;53133;52.862;6.602;2023-02-11T02:54:35;33.70;;;11.60;;
66327;SDS011;53133;52.862;6.602;2023-02-11T02:57:40;23.55;;;9.98;;
66327;SDS011;53133;52.862;6.602;2023-02-11T03:00:43;29.48;;;11.32;;
66327;SDS011;53133;52.862;6.602;2023-02-11T03:03:38;23.50;;;9.60;;
66327;SDS011;53133;52.862;6.602;2023-02-11T03:09:07;26.38;;;10.02;;
66327;SDS011;53133;52.862;6.602;2023-02-11T03:11:46;33.05;;;12.18;;
66327;SDS011;53133;52.862;6.602;2023-02-11T03:14:12;25.58;;;11.20;;
66327;SDS011;53133;52.862;6.602;2023-02-11T03:16:41;32.92;;;12.00;;
66327;SDS011;53133;52.862;6.602;2023-02-11T03:19:09;29.33;;;10.73;;
66327;SDS011;53133;52.862;6.602;2023-02-11T03:21:47;27.30;;;10.95;;
66327;SDS011;53133;52.862;6.602;2023-02-11T03:24:20;27.15;;;10.70;;
66327;SDS011;53133;52.862;6.602;2023-02-11T03:26:53;23.33;;;11.20;;
66327;SDS011;53133;52.862;6.602;2023-02-11T03:37:24;27.40;;;13.18;;
66327;SDS011;53133;52.862;6.602;2023-02-11T03:42:50;31.35;;;14.07;;
66327;SDS011;53133;52.862;6.602;2023-02-11T03:45:21;32.47;;;13.65;;
66327;SDS011;53133;52.862;6.602;2023-02-11T03:47:49;31.25;;;12.50;;
66327;SDS011;53133;52.862;6.602;2023-02-11T03:50:19;31.95;;;13.82;;
66327;SDS011;53133;52.862;6.602;2023-02-11T03:52:46;31.17;;;14.07;;
66327;SDS011;53133;52.862;6.602;2023-02-11T03:55:16;28.58;;;13.77;;
66327;SDS011;53133;52.862;6.602;2023-02-11T03:57:44;31.58;;;14.15;;
66327;SDS011;53133;52.862;6.602;2023-02-11T04:00:10;34.35;;;14.48;;
66327;SDS011;53133;52.862;6.602;2023-02-11T04:02:37;32.35;;;13.85;;
66327;SDS011;53133;52.862;6.602;2023-02-11T04:05:04;34.55;;;13.35;;
66327;SDS011;53133;52.862;6.602;2023-02-11T04:07:31;34.72;;;14.75;;
66327;SDS011;53133;52.862;6.602;2023-02-11T04:09:57;33.08;;;15.13;;
66327;SDS011;53133;52.862;6.602;2023-02-11T04:12:23;33.20;;;14.38;;
66327;SDS011;53133;52.862;6.602;2023-02-11T04:14:48;37.05;;;15.07;;
66327;SDS011;53133;52.862;6.602;2023-02-11T04:17:14;33.08;;;14.50;;
66327;SDS011;53133;52.862;6.602;2023-02-11T04:19:40;29.63;;;13.98;;
66327;SDS011;53133;52.862;6.602;2023-02-11T04:22:06;32.60;;;15.52;;
66327;SDS011;53133;52.862;6.602;2023-02-11T04:24:32;32.60;;;15.02;;
66327;SDS011;53133;52.862;6.602;2023-02-11T04:26:58;40.70;;;15.68;;
66327;SDS011;53133;52.862;6.602;2023-02-11T04:29:23;37.10;;;15.95;;
66327;SDS011;53133;52.862;6.602;2023-02-11T04:31:49;36.63;;;15.55;;
66327;SDS011;53133;52.862;6.602;2023-02-11T04:34:14;34.60;;;15.95;;
66327;SDS011;53133;52.862;6.602;2023-02-11T04:36:40;30.33;;;14.93;;
66327;SDS011;53133;52.862;6.602;2023-02-11T04:39:06;35.33;;;16.17;;
66327;SDS011;53133;52.862;6.602;2023-02-11T04:41:31;32.03;;;15.10;;
66327;SDS011;53133;52.862;6.602;2023-02-11T04:43:57;37.33;;;15.82;;
66327;SDS011;53133;52.862;6.602;2023-02-11T04:46:23;36.80;;;15.95;;
66327;SDS011;53133;52.862;6.602;2023-02-11T04:48:49;28.95;;;14.38;;
66327;SDS011;53133;52.862;6.602;2023-02-11T04:51:14;37.05;;;16.17;;
66327;SDS011;53133;52.862;6.602;2023-02-11T04:53:40;32.65;;;15.27;;
66327;SDS011;53133;52.862;6.602;2023-02-11T04:56:05;35.55;;;15.60;;
66327;SDS011;53133;52.862;6.602;2023-02-11T04:58:31;38.55;;;16.98;;
66327;SDS011;53133;52.862;6.602;2023-02-11T05:01:04;38.20;;;17.23;;
66327;SDS011;53133;52.862;6.602;2023-02-11T05:03:37;35.20;;;15.48;;
66327;SDS011;53133;52.862;6.602;2023-02-11T05:06:03;36.13;;;15.57;;
66327;SDS011;53133;52.862;6.602;2023-02-11T05:08:29;34.60;;;15.80;;
66327;SDS011;53133;52.862;6.602;2023-02-11T05:10:55;41.08;;;16.83;;
66327;SDS011;53133;52.862;6.602;2023-02-11T05:13:21;41.15;;;17.05;;
66327;SDS011;53133;52.862;6.602;2023-02-11T05:15:47;37.63;;;16.88;;
66327;SDS011;53133;52.862;6.602;2023-02-11T05:18:12;36.45;;;16.55;;
66327;SDS011;53133;52.862;6.602;2023-02-11T05:20:42;46.03;;;15.88;;
66327;SDS011;53133;52.862;6.602;2023-02-11T05:23:08;32.03;;;15.27;;
66327;SDS011;53133;52.862;6.602;2023-02-11T05:25:34;42.55;;;17.40;;
66327;SDS011;53133;52.862;6.602;2023-02-11T05:27:59;39.00;;;16.92;;
66327;SDS011;53133;52.862;6.602;2023-02-11T05:30:25;38.97;;;17.80;;
66327;SDS011;53133;52.862;6.602;2023-02-11T05:32:51;41.33;;;17.42;;
66327;SDS011;53133;52.862;6.602;2023-02-11T05:35:17;35.90;;;16.33;;
66327;SDS011;53133;52.862;6.602;2023-02-11T05:37:42;38.85;;;16.67;;
66327;SDS011;53133;52.862;6.602;2023-02-11T05:40:08;37.50;;;17.42;;
66327;SDS011;53133;52.862;6.602;2023-02-11T05:42:34;39.10;;;17.10;;
66327;SDS011;53133;52.862;6.602;2023-02-11T05:44:59;35.53;;;16.02;;
66327;SDS011;53133;52.862;6.602;2023-02-11T05:47:25;36.05;;;17.63;;
66327;SDS011;53133;52.862;6.602;2023-02-11T05:49:51;37.15;;;17.40;;
66327;SDS011;53133;52.862;6.602;2023-02-11T05:52:20;33.85;;;17.33;;
66327;SDS011;53133;52.862;6.602;2023-02-11T05:54:46;37.70;;;16.50;;
66327;SDS011;53133;52.862;6.602;2023-02-11T05:57:12;40.80;;;17.17;;
66327;SDS011;53133;52.862;6.602;2023-02-11T05:59:38;39.28;;;17.65;;
66327;SDS011;53133;52.862;6.602;2023-02-11T06:02:03;42.60;;;17.88;;
66327;SDS011;53133;52.862;6.602;2023-02-11T06:04:29;40.55;;;17.52;;
66327;SDS011;53133;52.862;6.602;2023-02-11T06:06:55;40.28;;;17.58;;
66327;SDS011;53133;52.862;6.602;2023-02-11T06:09:21;35.88;;;16.80;;
66327;SDS011;53133;52.862;6.602;2023-02-11T06:11:46;39.35;;;17.88;;
66327;SDS011;53133;52.862;6.602;2023-02-11T06:14:12;47.55;;;19.30;;
66327;SDS011;53133;52.862;6.602;2023-02-11T06:16:38;41.80;;;18.60;;
66327;SDS011;53133;52.862;6.602;2023-02-11T06:19:03;42.70;;;18.42;;
66327;SDS011;53133;52.862;6.602;2023-02-11T06:21:29;42.85;;;19.08;;
66327;SDS011;53133;52.862;6.602;2023-02-11T06:23:55;43.13;;;19.90;;
66327;SDS011;53133;52.862;6.602;2023-02-11T06:26:21;41.47;;;19.02;;
66327;SDS011;53133;52.862;6.602;2023-02-11T06:28:47;44.25;;;20.17;;
66327;SDS011;53133;52.862;6.602;2023-02-11T06:31:13;37.92;;;18.95;;
66327;SDS011;53133;52.862;6.602;2023-02-11T06:33:39;42.75;;;20.45;;
66327;SDS011;53133;52.862;6.602;2023-02-11T06:36:13;48.70;;;20.42;;
66327;SDS011;53133;52.862;6.602;2023-02-11T06:38:40;42.60;;;20.23;;
66327;SDS011;53133;52.862;6.602;2023-02-11T06:41:08;51.15;;;21.58;;
66327;SDS011;53133;52.862;6.602;2023-02-11T06:43:35;45.80;;;21.10;;
66327;SDS011;53133;52.862;6.602;2023-02-11T06:46:00;47.15;;;21.15;;
66327;SDS011;53133;52.862;6.602;2023-02-11T06:48:26;49.33;;;21.38;;
66327;SDS011;53133;52.862;6.602;2023-02-11T06:50:52;46.85;;;21.35;;
66327;SDS011;53133;52.862;6.602;2023-02-11T06:53:17;49.42;;;20.67;;
66327;SDS011;53133;52.862;6.602;2023-02-11T06:55:43;52.45;;;22.25;;
66327;SDS011;53133;52.862;6.602;2023-02-11T06:58:08;47.92;;;21.85;;
66327;SDS011;53133;52.862;6.602;2023-02-11T07:00:34;50.20;;;23.35;;
66327;SDS011;53133;52.862;6.602;2023-02-11T07:03:00;46.72;;;21.55;;
66327;SDS011;53133;52.862;6.602;2023-02-11T07:05:26;44.58;;;21.38;;
66327;SDS011;53133;52.862;6.602;2023-02-11T07:07:51;46.65;;;20.80;;
66327;SDS011;53133;52.862;6.602;2023-02-11T07:10:17;46.38;;;21.65;;
66327;SDS011;53133;52.862;6.602;2023-02-11T07:12:43;45.17;;;21.45;;
66327;SDS011;53133;52.862;6.602;2023-02-11T07:15:08;47.92;;;21.58;;
66327;SDS011;53133;52.862;6.602;2023-02-11T07:17:34;46.70;;;21.77;;
66327;SDS011;53133;52.862;6.602;2023-02-11T07:20:00;54.33;;;22.45;;
66327;SDS011;53133;52.862;6.602;2023-02-11T07:22:26;46.22;;;21.90;;
66327;SDS011;53133;52.862;6.602;2023-02-11T07:24:51;44.97;;;21.30;;
66327;SDS011;53133;52.862;6.602;2023-02-11T07:27:17;43.00;;;21.20;;
66327;SDS011;53133;52.862;6.602;2023-02-11T07:29:43;47.78;;;21.42;;
66327;SDS011;53133;52.862;6.602;2023-02-11T07:32:10;39.30;;;20.05;;
66327;SDS011;53133;52.862;6.602;2023-02-11T07:34:37;51.08;;;20.77;;
66327;SDS011;53133;52.862;6.602;2023-02-11T07:37:02;41.13;;;20.23;;
66327;SDS011;53133;52.862;6.602;2023-02-11T07:39:28;41.88;;;20.05;;
66327;SDS011;53133;52.862;6.602;2023-02-11T07:41:54;41.63;;;20.58;;
66327;SDS011;53133;52.862;6.602;2023-02-11T07:44:20;43.47;;;20.15;;
66327;SDS011;53133;52.862;6.602;2023-02-11T07:46:46;49.50;;;20.05;;
66327;SDS011;53133;52.862;6.602;2023-02-11T07:49:13;44.50;;;18.63;;
66327;SDS011;53133;52.862;6.602;2023-02-11T07:51:39;43.20;;;20.80;;
66327;SDS011;53133;52.862;6.602;2023-02-11T07:54:06;40.50;;;19.60;;
66327;SDS011;53133;52.862;6.602;2023-02-11T07:56:32;44.50;;;20.20;;
66327;SDS011;53133;52.862;6.602;2023-02-11T07:58:59;40.67;;;19.70;;
66327;SDS011;53133;52.862;6.602;2023-02-11T08:01:25;43.65;;;20.42;;
66327;SDS011;53133;52.862;6.602;2023-02-11T08:03:55;39.47;;;19.92;;
66327;SDS011;53133;52.862;6.602;2023-02-11T08:06:23;43.83;;;21.27;;
66327;SDS011;53133;52.862;6.602;2023-02-11T08:08:51;38.63;;;22.35;;
66327;SDS011;53133;52.862;6.602;2023-02-11T08:11:21;48.88;;;21.52;;
66327;SDS011;53133;52.862;6.602;2023-02-11T08:13:48;40.72;;;19.65;;
66327;SDS011;53133;52.862;6.602;2023-02-11T08:16:25;42.08;;;20.33;;
66327;SDS011;53133;52.862;6.602;2023-02-11T08:18:54;42.58;;;19.58;;
66327;SDS011;53133;52.862;6.602;2023-02-11T08:21:21;46.08;;;21.02;;
66327;SDS011;53133;52.862;6.602;2023-02-11T08:23:47;39.35;;;18.40;;
66327;SDS011;53133;52.862;6.602;2023-02-11T08:26:32;39.45;;;18.73;;
66327;SDS011;53133;52.862;6.602;2023-02-11T08:28:59;39.50;;;19.67;;
66327;SDS011;53133;52.862;6.602;2023-02-11T08:31:26;43.30;;;20.70;;
66327;SDS011;53133;52.862;6.602;2023-02-11T08:33:58;39.83;;;18.23;;
66327;SDS011;53133;52.862;6.602;2023-02-11T08:36:27;42.28;;;18.80;;
66327;SDS011;53133;52.862;6.602;2023-02-11T08:38:55;36.25;;;18.52;;
66327;SDS011;53133;52.862;6.602;2023-02-11T08:41:21;40.78;;;19.55;;
66327;SDS011;53133;52.862;6.602;2023-02-11T08:43:47;37.35;;;18.58;;
66327;SDS011;53133;52.862;6.602;2023-02-11T08:46:14;37.60;;;18.92;;
66327;SDS011;53133;52.862;6.602;2023-02-11T08:48:41;42.97;;;18.80;;
66327;SDS011;53133;52.862;6.602;2023-02-11T08:51:08;38.55;;;17.05;;
66327;SDS011;53133;52.862;6.602;2023-02-11T08:53:36;39.53;;;18.27;;
66327;SDS011;53133;52.862;6.602;2023-02-11T08:56:03;36.75;;;17.83;;
66327;SDS011;53133;52.862;6.602;2023-02-11T08:58:29;35.30;;;18.38;;
66327;SDS011;53133;52.862;6.602;2023-02-11T09:00:54;39.10;;;18.42;;
66327;SDS011;53133;52.862;6.602;2023-02-11T09:03:20;36.83;;;18.33;;
66327;SDS011;53133;52.862;6.602;2023-02-11T09:05:46;36.13;;;17.65;;
66327;SDS011;53133;52.862;6.602;2023-02-11T09:08:14;38.33;;;17.88;;
66327;SDS011;53133;52.862;6.602;2023-02-11T09:10:40;39.30;;;17.30;;
66327;SDS011;53133;52.862;6.602;2023-02-11T09:13:07;35.03;;;17.15;;
66327;SDS011;53133;52.862;6.602;2023-02-11T09:15:33;37.90;;;17.75;;
66327;SDS011;53133;52.862;6.602;2023-02-11T09:17:59;34.22;;;17.88;;
66327;SDS011;53133;52.862;6.602;2023-02-11T09:20:25;38.47;;;17.98;;
66327;SDS011;53133;52.862;6.602;2023-02-11T09:22:51;35.13;;;17.60;;
66327;SDS011;53133;52.862;6.602;2023-02-11T09:25:18;36.35;;;16.45;;
66327;SDS011;53133;52.862;6.602;2023-02-11T09:27:44;36.13;;;16.90;;
66327;SDS011;53133;52.862;6.602;2023-02-11T09:30:10;33.65;;;17.38;;
66327;SDS011;53133;52.862;6.602;2023-02-11T09:32:36;32.80;;;16.85;;
66327;SDS011;53133;52.862;6.602;2023-02-11T09:35:02;34.05;;;17.02;;
66327;SDS011;53133;52.862;6.602;2023-02-11T09:37:27;33.90;;;16.63;;
66327;SDS011;53133;52.862;6.602;2023-02-11T09:39:53;37.25;;;18.02;;
66327;SDS011;53133;52.862;6.602;2023-02-11T09:42:23;30.35;;;16.58;;
66327;SDS011;53133;52.862;6.602;2023-02-11T09:47:31;31.67;;;16.65;;
66327;SDS011;53133;52.862;6.602;2023-02-11T09:50:00;32.25;;;16.65;;
66327;SDS011;53133;52.862;6.602;2023-02-11T09:55:27;31.10;;;15.73;;
66327;SDS011;53133;52.862;6.602;2023-02-11T09:58:06;31.00;;;15.68;;
66327;SDS011;53133;52.862;6.602;2023-02-11T10:00:39;30.13;;;15.07;;
66327;SDS011;53133;52.862;6.602;2023-02-11T10:03:23;33.05;;;14.82;;
66327;SDS011;53133;52.862;6.602;2023-02-11T10:14:11;30.58;;;13.98;;
66327;SDS011;53133;52.862;6.602;2023-02-11T10:19:40;31.67;;;14.20;;
66327;SDS011;53133;52.862;6.602;2023-02-11T10:25:04;25.88;;;12.32;;
66327;SDS011;53133;52.862;6.602;2023-02-11T10:27:54;24.00;;;12.53;;
66327;SDS011;53133;52.862;6.602;2023-02-11T10:30:29;23.10;;;12.10;;
66327;SDS011;53133;52.862;6.602;2023-02-11T10:32:59;27.02;;;12.65;;
66327;SDS011;53133;52.862;6.602;2023-02-11T10:35:40;27.42;;;11.55;;
66327;SDS011;53133;52.862;6.602;2023-02-11T10:38:07;20.92;;;9.85;;
66327;SDS011;53133;52.862;6.602;2023-02-11T10:40:34;23.42;;;10.30;;
66327;SDS011;53133;52.862;6.602;2023-02-11T10:43:02;22.75;;;10.05;;
66327;SDS011;53133;52.862;6.602;2023-02-11T10:45:53;20.83;;;10.38;;
66327;SDS011;53133;52.862;6.602;2023-02-11T10:53:40;21.20;;;9.85;;
66327;SDS011;53133;52.862;6.602;2023-02-11T10:56:06;29.80;;;13.20;;
66327;SDS011;53133;52.862;6.602;2023-02-11T10:58:40;19.55;;;11.38;;
66327;SDS011;53133;52.862;6.602;2023-02-11T11:01:09;19.42;;;10.65;;
66327;SDS011;53133;52.862;6.602;2023-02-11T11:03:44;20.13;;;10.60;;
66327;SDS011;53133;52.862;6.602;2023-02-11T11:06:11;20.13;;;11.27;;
66327;SDS011;53133;52.862;6.602;2023-02-11T11:08:44;22.33;;;10.23;;
66327;SDS011;53133;52.862;6.602;2023-02-11T11:11:12;23.58;;;9.68;;
66327;SDS011;53133;52.862;6.602;2023-02-11T11:19:18;21.08;;;9.32;;
66327;SDS011;53133;52.862;6.602;2023-02-11T11:21:48;20.25;;;9.38;;
66327;SDS011;53133;52.862;6.602;2023-02-11T11:24:20;19.63;;;8.68;;
66327;SDS011;53133;52.862;6.602;2023-02-11T11:26:49;17.38;;;8.60;;
66327;SDS011;53133;52.862;6.602;2023-02-11T11:29:30;22.20;;;9.38;;
66327;SDS011;53133;52.862;6.602;2023-02-11T11:32:03;22.95;;;9.15;;
66327;SDS011;53133;52.862;6.602;2023-02-11T11:34:36;19.55;;;8.90;;
66327;SDS011;53133;52.862;6.602;2023-02-11T11:37:13;19.55;;;8.80;;
66327;SDS011;53133;52.862;6.602;2023-02-11T11:39:55;14.63;;;8.65;;
66327;SDS011;53133;52.862;6.602;2023-02-11T11:42:24;16.13;;;8.10;;
66327;SDS011;53133;52.862;6.602;2023-02-11T11:47:28;20.75;;;8.68;;
66327;SDS011;53133;52.862;6.602;2023-02-11T11:50:11;16.60;;;8.85;;
66327;SDS011;53133;52.862;6.602;2023-02-11T11:55:30;17.42;;;7.97;;
66327;SDS011;53133;52.862;6.602;2023-02-11T11:58:02;20.23;;;8.15;;
66327;SDS011;53133;52.862;6.602;2023-02-11T12:00:36;14.73;;;7.78;;
66327;SDS011;53133;52.862;6.602;2023-02-11T12:08:33;14.88;;;7.85;;
66327;SDS011;53133;52.862;6.602;2023-02-11T12:11:21;15.23;;;7.18;;
66327;SDS011;53133;52.862;6.602;2023-02-11T12:17:02;16.27;;;7.43;;
66327;SDS011;53133;52.862;6.602;2023-02-11T12:25:11;15.88;;;6.82;;
66327;SDS011;53133;52.862;6.602;2023-02-11T12:28:18;14.48;;;6.75;;
66327;SDS011;53133;52.862;6.602;2023-02-11T12:30:56;15.85;;;6.97;;
66327;SDS011;53133;52.862;6.602;2023-02-11T12:34:05;22.92;;;8.18;;
66327;SDS011;53133;52.862;6.602;2023-02-11T12:50:21;12.82;;;5.45;;
66327;SDS011;53133;52.862;6.602;2023-02-11T12:53:09;17.92;;;6.03;;
66327;SDS011;53133;52.862;6.602;2023-02-11T12:55:41;19.35;;;8.05;;
66327;SDS011;53133;52.862;6.602;2023-02-11T12:58:15;28.95;;;14.85;;
66327;SDS011;53133;52.862;6.602;2023-02-11T13:00:48;124.47;;;76.53;;
66327;SDS011;53133;52.862;6.602;2023-02-11T13:03:20;18.03;;;6.00;;
66327;SDS011;53133;52.862;6.602;2023-02-11T13:05:57;85.90;;;55.15;;
66327;SDS011;53133;52.862;6.602;2023-02-11T13:08:32;20.58;;;6.10;;
66327;SDS011;53133;52.862;6.602;2023-02-11T13:11:02;13.38;;;5.18;;
66327;SDS011;53133;52.862;6.602;2023-02-11T13:13:47;12.50;;;5.28;;
66327;SDS011;53133;52.862;6.602;2023-02-11T13:16:37;13.45;;;4.97;;
66327;SDS011;53133;52.862;6.602;2023-02-11T13:19:16;23.20;;;11.07;;
66327;SDS011;53133;52.862;6.602;2023-02-11T13:21:50;11.48;;;5.50;;
66327;SDS011;53133;52.862;6.602;2023-02-11T13:37:59;14.80;;;5.50;;
66327;SDS011;53133;52.862;6.602;2023-02-11T13:40:56;13.15;;;5.35;;
66327;SDS011;53133;52.862;6.602;2023-02-11T13:43:23;16.38;;;4.35;;
66327;SDS011;53133;52.862;6.602;2023-02-11T13:45:53;13.73;;;4.63;;
66327;SDS011;53133;52.862;6.602;2023-02-11T13:51:00;12.27;;;4.78;;
66327;SDS011;53133;52.862;6.602;2023-02-11T14:02:01;11.88;;;4.00;;
66327;SDS011;53133;52.862;6.602;2023-02-11T14:10:55;12.98;;;4.38;;
66327;SDS011;53133;52.862;6.602;2023-02-11T14:16:06;15.73;;;4.10;;
66327;SDS011;53133;52.862;6.602;2023-02-11T14:23:35;13.25;;;5.43;;
66327;SDS011;53133;52.862;6.602;2023-02-11T14:29:32;16.52;;;4.40;;
66327;SDS011;53133;52.862;6.602;2023-02-11T14:31:41;15.73;;;4.40;;
66327;SDS011;53133;52.862;6.602;2023-02-11T14:40:34;25.67;;;11.23;;
66327;SDS011;53133;52.862;6.602;2023-02-11T14:43:11;13.48;;;4.43;;
66327;SDS011;53133;52.862;6.602;2023-02-11T14:45:40;15.82;;;4.50;;
66327;SDS011;53133;52.862;6.602;2023-02-11T14:48:16;11.23;;;3.75;;
66327;SDS011;53133;52.862;6.602;2023-02-11T14:50:50;82.35;;;40.90;;
66327;SDS011;53133;52.862;6.602;2023-02-11T14:53:20;24.20;;;15.48;;
66327;SDS011;53133;52.862;6.602;2023-02-11T14:55:48;12.13;;;3.78;;
66327;SDS011;53133;52.862;6.602;2023-02-11T14:58:19;12.77;;;4.00;;
66327;SDS011;53133;52.862;6.602;2023-02-11T15:00:49;13.07;;;5.03;;
66327;SDS011;53133;52.862;6.602;2023-02-11T15:03:34;18.02;;;5.32;;
66327;SDS011;53133;52.862;6.602;2023-02-11T15:06:06;15.10;;;4.60;;
66327;SDS011;53133;52.862;6.602;2023-02-11T15:08:47;10.32;;;3.55;;
66327;SDS011;53133;52.862;6.602;2023-02-11T15:11:19;14.93;;;4.30;;
66327;SDS011;53133;52.862;6.602;2023-02-11T15:13:46;16.63;;;5.03;;
66327;SDS011;53133;52.862;6.602;2023-02-11T15:16:15;13.82;;;3.95;;
66327;SDS011;53133;52.862;6.602;2023-02-11T15:18:46;13.00;;;3.67;;
66327;SDS011;53133;52.862;6.602;2023-02-11T15:21:18;10.20;;;3.60;;
66327;SDS011;53133;52.862;6.602;2023-02-11T15:23:59;16.35;;;4.13;;
66327;SDS011;53133;52.862;6.602;2023-02-11T15:26:27;11.98;;;4.22;;
66327;SDS011;53133;52.862;6.602;2023-02-11T15:28:53;10.77;;;3.72;;
66327;SDS011;53133;52.862;6.602;2023-02-11T15:31:21;17.23;;;4.15;;
66327;SDS011;53133;52.862;6.602;2023-02-11T15:33:48;14.68;;;3.90;;
66327;SDS011;53133;52.862;6.602;2023-02-11T15:36:15;11.98;;;3.55;;
66327;SDS011;53133;52.862;6.602;2023-02-11T15:38:41;16.35;;;7.53;;
66327;SDS011;53133;52.862;6.602;2023-02-11T15:41:26;14.20;;;4.18;;
66327;SDS011;53133;52.862;6.602;2023-02-11T15:44:01;12.95;;;3.95;;
66327;SDS011;53133;52.862;6.602;2023-02-11T15:46:30;13.82;;;4.43;;
66327;SDS011;53133;52.862;6.602;2023-02-11T15:49:02;16.98;;;3.90;;
66327;SDS011;53133;52.862;6.602;2023-02-11T15:51:29;13.35;;;3.55;;
66327;SDS011;53133;52.862;6.602;2023-02-11T15:53:59;9.20;;;3.08;;
66327;SDS011;53133;52.862;6.602;2023-02-11T15:56:35;15.32;;;3.67;;
66327;SDS011;53133;52.862;6.602;2023-02-11T15:59:14;15.13;;;3.75;;
66327;SDS011;53133;52.862;6.602;2023-02-11T16:01:57;10.43;;;3.42;;
66327;SDS011;53133;52.862;6.602;2023-02-11T16:04:50;11.40;;;3.83;;
66327;SDS011;53133;52.862;6.602;2023-02-11T16:10:03;13.05;;;3.67;;
66327;SDS011;53133;52.862;6.602;2023-02-11T16:12:39;11.57;;;3.33;;
66327;SDS011;53133;52.862;6.602;2023-02-11T16:18:01;11.77;;;4.30;;
66327;SDS011;53133;52.862;6.602;2023-02-11T16:20:36;12.73;;;3.90;;
66327;SDS011;53133;52.862;6.602;2023-02-11T16:23:02;10.20;;;3.05;;
66327;SDS011;53133;52.862;6.602;2023-02-11T16:25:28;17.83;;;3.53;;
66327;SDS011;53133;52.862;6.602;2023-02-11T16:27:55;12.02;;;3.85;;
66327;SDS011;53133;52.862;6.602;2023-02-11T16:30:26;13.65;;;3.63;;
66327;SDS011;53133;52.862;6.602;2023-02-11T16:33:01;14.25;;;4.30;;
66327;SDS011;53133;52.862;6.602;2023-02-11T16:35:28;12.23;;;3.50;;
66327;SDS011;53133;52.862;6.602;2023-02-11T16:37:54;13.82;;;4.15;;
66327;SDS011;53133;52.862;6.602;2023-02-11T16:40:19;12.27;;;3.10;;
66327;SDS011;53133;52.862;6.602;2023-02-11T16:42:47;21.77;;;6.93;;
66327;SDS011;53133;52.862;6.602;2023-02-11T16:45:13;12.98;;;3.50;;
66327;SDS011;53133;52.862;6.602;2023-02-11T16:47:39;24.23;;;8.02;;
66327;SDS011;53133;52.862;6.602;2023-02-11T16:50:07;17.02;;;5.47;;
66327;SDS011;53133;52.862;6.602;2023-02-11T16:52:35;11.38;;;3.33;;
66327;SDS011;53133;52.862;6.602;2023-02-11T16:55:01;14.18;;;4.43;;
66327;SDS011;53133;52.862;6.602;2023-02-11T16:57:29;15.15;;;5.78;;
66327;SDS011;53133;52.862;6.602;2023-02-11T16:59:55;13.48;;;5.10;;
66327;SDS011;53133;52.862;6.602;2023-02-11T17:02:24;11.75;;;4.30;;
66327;SDS011;53133;52.862;6.602;2023-02-11T17:04:52;19.88;;;14.68;;
66327;SDS011;53133;52.862;6.602;2023-02-11T17:07:19;19.02;;;7.78;;
66327;SDS011;53133;52.862;6.602;2023-02-11T17:09:44;30.90;;;12.65;;
66327;SDS011;53133;52.862;6.602;2023-02-11T17:12:10;20.23;;;5.65;;